Flight Number: AVA4088 Duration: 4:30
Departure: Singapore Changi Airport (WSSS) at 00:30 Distance: 1741.9 Nm
Arrival: Chung-cheng (RCTP) at 05:00 Equipment: B777

Weather Information
Singapore / Changi Airport, Singapore (WSSS) 01-22N 103-59E 16M Aug 11, 2022 - 01:30 AM EDT / 2022.08.11 0530 UTC
Wind: from the SSE (160 degrees) at 9 MPH (8 KT) (direction variable):0
Visibility: greater than 7 mile(s):0
Sky conditions: mostly cloudy Weather: Towering cumulus clouds observed Temperature: 89 F (32 C) Heat index: 98.4 F (36.9 C):1 Dew Point: 75 F (24 C) Relative Humidity: 62% Pressure (altimeter): 29.77 in. Hg (1008 hPa)
ob: WSSS 110530Z 16008KT 130V200 9999 FEW020 FEW022TCU BKN300 32/24 Q1008 NOSIG cycle: 5
Sunrise: 23:06 Sunset: 11:11 (UTC)

Chiang Kai Shek, Taiwan (RCTP) 25-05N 121-13E Aug 11, 2022 - 01:30 AM EDT / 2022.08.11 0530 UTC
Wind: from the WNW (290 degrees) at 9 MPH (8 KT) (direction variable):0
Visibility: greater than 7 mile(s):0
Sky conditions: partly cloudy Temperature: 91 F (33 C) Heat index: 109.0 F (42.8 C):1 Dew Point: 80 F (27 C) Relative Humidity: 70% Pressure (altimeter): 29.77 in. Hg (1008 hPa)
ob: RCTP 110530Z 29008KT 260V330 9999 FEW015 SCT030 33/27 Q1008 NOSIG RMK A2979 cycle: 5
Sunrise: 21:29 Sunset: 10:30 (UTC)

TAF:2022/08/11 06:06 TAF RCTP 110500Z 1106/1212 30008KT 9999 FEW015 BKN032 TEMPO 1106/1110 15007KT 5000 SHRA FEW012 FEW015CB BKN020 BKN050 BECMG 1110/1112 21005KT TEMPO 1118/1124 FEW010 BKN016 BECMG 1200/1202 25007KT TEMPO 1202/1206 28007KT TEMPO 1206/1210 15007KT 5000 SHRA FEW012 FEW015CB BKN020 BKN050

This route has never been flown.

Route map